UAL97K EDDM-KBOS
Flight info
| Callsign | UAL97K |
|---|---|
| Flight time | N/A |
| Altitude | 34000 |
| Route | GIVMI6S GIVMI Y101 INBED DCT REKDI DCT LOHRE DCT ADKUV DCT BUB DCT DENUT L610 KOPUL Q63 ICTAM L179 SAWPE DCT OZZIL DCT ARPAK DCT FELCA DCT OFSOX DCT SLANY DCT TOBOR/M084F350 DCT 53N020W 53N030W 5230N04000W 50N050W DCT ELSIR/N0481F360 DCT TUSKY DCT EURRO OOSHN5 |
| Aircraft | B77W/H-SDE1E2E3FGHIJ2J3J4J5M1RWXY/LB1D1 |
Departure
| Time | 2026-05-06 17:15 |
|---|---|
| Airport | Munich Airport (EDDM) |
Arrival
| Time | N/A |
|---|---|
| Airport | Boston Logan International Airport (KBOS) |
| Time | Latitude | Longitude | Altitude | Speed | Heading |
|---|---|---|---|---|---|
| 2026-05-06 16:31 | 48.35788 | 11.79253 | 1478 ft | 0 kts | 263° |
| 2026-05-06 16:57 | 48.35788 | 11.79252 | 1478 ft | 0 kts | 263° |
| 2026-05-06 16:58 | 48.35788 | 11.79251 | 1478 ft | 0 kts | 263° |
| 2026-05-06 16:59 | 48.35789 | 11.79271 | 1478 ft | 3 kts | 263° |
| 2026-05-06 16:59 | 48.35792 | 11.79307 | 1478 ft | 3 kts | 266° |
| 2026-05-06 16:59 | 48.35793 | 11.79339 | 1477 ft | 3 kts | 279° |
| 2026-05-06 17:00 | 48.35786 | 11.79368 | 1477 ft | 2 kts | 301° |
| 2026-05-06 17:00 | 48.35779 | 11.79383 | 1477 ft | 2 kts | 315° |
| 2026-05-06 17:00 | 48.35763 | 11.79399 | 1477 ft | 1 kts | 346° |
| 2026-05-06 17:00 | 48.35754 | 11.79402 | 1477 ft | 1 kts | 354° |
| 2026-05-06 17:04 | 48.35765 | 11.79401 | 1477 ft | 4 kts | 2° |
| 2026-05-06 17:04 | 48.35811 | 11.79441 | 1476 ft | 12 kts | 43° |
| 2026-05-06 17:05 | 48.35850 | 11.79493 | 1476 ft | 11 kts | 34° |
| 2026-05-06 17:05 | 48.35944 | 11.79504 | 1474 ft | 8 kts | 355° |
| 2026-05-06 17:05 | 48.35980 | 11.79499 | 1474 ft | 0 kts | 354° |
| 2026-05-06 17:06 | 48.35981 | 11.79499 | 1474 ft | 0 kts | 354° |
| 2026-05-06 17:06 | 48.35997 | 11.79496 | 1474 ft | 4 kts | 354° |
| 2026-05-06 17:06 | 48.36045 | 11.79488 | 1474 ft | 9 kts | 354° |
| 2026-05-06 17:06 | 48.36124 | 11.79475 | 1474 ft | 13 kts | 354° |
| 2026-05-06 17:07 | 48.36201 | 11.79489 | 1473 ft | 11 kts | 44° |
| 2026-05-06 17:07 | 48.36222 | 11.79594 | 1472 ft | 11 kts | 83° |
| 2026-05-06 17:07 | 48.36233 | 11.79724 | 1472 ft | 13 kts | 83° |
| 2026-05-06 17:07 | 48.36243 | 11.79871 | 1471 ft | 15 kts | 85° |
| 2026-05-06 17:08 | 48.36251 | 11.79973 | 1471 ft | 16 kts | 82° |
| 2026-05-06 17:08 | 48.36269 | 11.80202 | 1469 ft | 18 kts | 84° |
| 2026-05-06 17:08 | 48.36279 | 11.80330 | 1469 ft | 17 kts | 83° |
| 2026-05-06 17:08 | 48.36292 | 11.80496 | 1467 ft | 16 kts | 84° |
| 2026-05-06 17:09 | 48.36308 | 11.80700 | 1466 ft | 14 kts | 83° |
| 2026-05-06 17:09 | 48.36319 | 11.80844 | 1465 ft | 13 kts | 85° |
| 2026-05-06 17:09 | 48.36328 | 11.80974 | 1464 ft | 12 kts | 84° |
| 2026-05-06 17:09 | 48.36337 | 11.81093 | 1464 ft | 11 kts | 84° |
| 2026-05-06 17:10 | 48.36345 | 11.81202 | 1463 ft | 10 kts | 84° |
| 2026-05-06 17:10 | 48.36354 | 11.81311 | 1462 ft | 11 kts | 83° |
| 2026-05-06 17:10 | 48.36364 | 11.81444 | 1462 ft | 14 kts | 83° |
| 2026-05-06 17:10 | 48.36377 | 11.81595 | 1462 ft | 15 kts | 83° |
| 2026-05-06 17:11 | 48.36388 | 11.81744 | 1461 ft | 13 kts | 83° |
| 2026-05-06 17:11 | 48.36397 | 11.81871 | 1461 ft | 12 kts | 90° |
| 2026-05-06 17:11 | 48.36390 | 11.82002 | 1461 ft | 13 kts | 86° |
| 2026-05-06 17:11 | 48.36416 | 11.82121 | 1461 ft | 11 kts | 34° |
| 2026-05-06 17:12 | 48.36462 | 11.82135 | 1461 ft | 10 kts | 354° |
| 2026-05-06 17:12 | 48.36529 | 11.82127 | 1461 ft | 9 kts | 355° |
| 2026-05-06 17:12 | 48.36585 | 11.82119 | 1461 ft | 8 kts | 350° |
| 2026-05-06 17:12 | 48.36662 | 11.82085 | 1461 ft | 9 kts | 319° |
| 2026-05-06 17:13 | 48.36680 | 11.82026 | 1461 ft | 10 kts | 274° |
| 2026-05-06 17:13 | 48.36679 | 11.82008 | 1461 ft | 0 kts | 265° |
| 2026-05-06 17:14 | 48.36679 | 11.82006 | 1461 ft | 2 kts | 265° |
| 2026-05-06 17:14 | 48.36641 | 11.81480 | 1462 ft | 84 kts | 263° |
| 2026-05-06 17:14 | 48.36589 | 11.80805 | 1464 ft | 125 kts | 263° |
| 2026-05-06 17:14 | 48.36466 | 11.79202 | 1474 ft | 183 kts | 263° |
| 2026-05-06 17:15 | 48.36287 | 11.76504 | 2095 ft | 205 kts | 266° |
| 2026-05-06 17:15 | 48.36207 | 11.75165 | 2815 ft | 199 kts | 265° |
| 2026-05-06 17:15 | 48.35990 | 11.72452 | 3613 ft | 208 kts | 265° |
| 2026-05-06 17:15 | 48.35812 | 11.70198 | 3983 ft | 227 kts | 266° |
| 2026-05-06 17:16 | 48.35939 | 11.67808 | 4398 ft | 243 kts | 288° |
| 2026-05-06 17:16 | 48.36375 | 11.66339 | 4828 ft | 248 kts | 298° |
| 2026-05-06 17:16 | 48.37457 | 11.63652 | 5835 ft | 252 kts | 300° |
| 2026-05-06 17:16 | 48.38369 | 11.61441 | 6621 ft | 255 kts | 300° |
| 2026-05-06 17:17 | 48.39008 | 11.59877 | 7134 ft | 259 kts | 300° |
| 2026-05-06 17:17 | 48.39924 | 11.57627 | 7735 ft | 267 kts | 299° |
| 2026-05-06 17:17 | 48.41268 | 11.54321 | 8657 ft | 277 kts | 298° |
| 2026-05-06 17:17 | 48.42282 | 11.51823 | 9420 ft | 281 kts | 298° |
| 2026-05-06 17:18 | 48.43308 | 11.49307 | 10000 ft | 289 kts | 301° |
| 2026-05-06 17:18 | 48.44117 | 11.47609 | 10287 ft | 300 kts | 306° |
| 2026-05-06 17:18 | 48.46146 | 11.44518 | 10776 ft | 327 kts | 319° |
| 2026-05-06 17:18 | 48.47377 | 11.43173 | 11016 ft | 340 kts | 325° |
| 2026-05-06 17:19 | 48.50135 | 11.41146 | 11582 ft | 363 kts | 339° |
| 2026-05-06 17:19 | 48.51673 | 11.40484 | 11862 ft | 374 kts | 346° |
| 2026-05-06 17:19 | 48.55208 | 11.39808 | 12452 ft | 397 kts | 352° |
| 2026-05-06 17:19 | 48.58009 | 11.39286 | 13058 ft | 407 kts | 351° |
| 2026-05-06 17:20 | 48.59912 | 11.38880 | 13579 ft | 411 kts | 350° |
| 2026-05-06 17:20 | 48.62697 | 11.38238 | 14268 ft | 418 kts | 349° |
| 2026-05-06 17:20 | 48.66261 | 11.37358 | 15207 ft | 425 kts | 348° |
| 2026-05-06 17:20 | 48.68147 | 11.36778 | 15699 ft | 426 kts | 343° |
| 2026-05-06 17:21 | 48.70796 | 11.35374 | 16446 ft | 426 kts | 333° |
| 2026-05-06 17:21 | 48.73294 | 11.33309 | 17161 ft | 428 kts | 324° |
| 2026-05-06 17:21 | 48.76619 | 11.29957 | 18124 ft | 434 kts | 323° |
| 2026-05-06 17:21 | 48.79144 | 11.27380 | 18918 ft | 437 kts | 323° |
| 2026-05-06 17:22 | 48.81720 | 11.24753 | 19572 ft | 444 kts | 323° |
| 2026-05-06 17:22 | 48.84418 | 11.22270 | 20171 ft | 452 kts | 331° |
| 2026-05-06 17:22 | 48.86196 | 11.21080 | 20582 ft | 457 kts | 338° |
| 2026-05-06 17:22 | 48.90262 | 11.18956 | 21497 ft | 463 kts | 340° |
| 2026-05-06 17:23 | 48.93135 | 11.17509 | 22153 ft | 466 kts | 340° |
| 2026-05-06 17:23 | 48.95970 | 11.16077 | 22808 ft | 470 kts | 340° |
| 2026-05-06 17:23 | 48.98860 | 11.14614 | 23372 ft | 472 kts | 341° |
| 2026-05-06 17:23 | 49.01831 | 11.13107 | 23907 ft | 478 kts | 341° |
| 2026-05-06 17:24 | 49.03882 | 11.12064 | 24261 ft | 481 kts | 340° |
| 2026-05-06 17:24 | 49.07767 | 11.10086 | 24924 ft | 488 kts | 341° |
| 2026-05-06 17:24 | 49.10823 | 11.08526 | 25471 ft | 492 kts | 340° |
| 2026-05-06 17:24 | 49.14072 | 11.06869 | 26055 ft | 496 kts | 340° |
| 2026-05-06 17:25 | 49.17230 | 11.05257 | 26499 ft | 501 kts | 340° |
| 2026-05-06 17:25 | 49.19252 | 11.04224 | 26810 ft | 505 kts | 340° |
| 2026-05-06 17:25 | 49.23317 | 11.02136 | 27423 ft | 509 kts | 339° |
| 2026-05-06 17:25 | 49.26447 | 11.00524 | 27870 ft | 513 kts | 339° |
| 2026-05-06 17:26 | 49.28696 | 10.99364 | 28201 ft | 516 kts | 340° |
| 2026-05-06 17:26 | 49.31896 | 10.97710 | 28700 ft | 519 kts | 339° |
| 2026-05-06 17:26 | 49.35918 | 10.95009 | 29217 ft | 520 kts | 328° |
| 2026-05-06 17:26 | 49.37846 | 10.93212 | 29465 ft | 520 kts | 323° |
| 2026-05-06 17:27 | 49.41467 | 10.88643 | 30083 ft | 517 kts | 311° |
| 2026-05-06 17:27 | 49.42966 | 10.86135 | 30497 ft | 514 kts | 307° |
| 2026-05-06 17:27 | 49.45712 | 10.81014 | 31360 ft | 508 kts | 305° |
| 2026-05-06 17:27 | 49.47765 | 10.77121 | 32061 ft | 502 kts | 304° |
| 2026-05-06 17:28 | 49.49078 | 10.74629 | 32567 ft | 496 kts | 304° |
| 2026-05-06 17:28 | 49.51203 | 10.70589 | 33288 ft | 490 kts | 304° |
| 2026-05-06 17:28 | 49.53180 | 10.66822 | 33720 ft | 488 kts | 303° |
| 2026-05-06 17:29 | 49.57808 | 10.57978 | 33799 ft | 490 kts | 303° |
| 2026-05-06 17:29 | 49.61188 | 10.51507 | 33774 ft | 488 kts | 304° |
| 2026-05-06 17:30 | 49.65743 | 10.42755 | 33785 ft | 490 kts | 303° |
| 2026-05-06 17:30 | 49.68985 | 10.35657 | 33776 ft | 486 kts | 299° |
| 2026-05-06 17:31 | 49.72686 | 10.27131 | 33771 ft | 486 kts | 298° |
| 2026-05-06 17:31 | 49.76485 | 10.18415 | 33770 ft | 490 kts | 298° |
| 2026-05-06 17:32 | 49.80291 | 10.09695 | 33764 ft | 487 kts | 298° |
| 2026-05-06 17:32 | 49.84086 | 10.00989 | 33766 ft | 490 kts | 298° |
| 2026-05-06 17:33 | 49.87891 | 9.92243 | 33768 ft | 488 kts | 299° |
| 2026-05-06 17:33 | 49.91701 | 9.83461 | 33776 ft | 489 kts | 299° |
| 2026-05-06 17:34 | 49.96021 | 9.73473 | 33782 ft | 490 kts | 299° |
| 2026-05-06 17:34 | 49.99158 | 9.66198 | 33748 ft | 489 kts | 299° |
| 2026-05-06 17:35 | 50.03560 | 9.55957 | 33772 ft | 488 kts | 299° |
| 2026-05-06 17:35 | 50.06408 | 9.48412 | 33772 ft | 483 kts | 289° |
| 2026-05-06 17:36 | 50.09342 | 9.33583 | 33772 ft | 477 kts | 281° |
| 2026-05-06 17:36 | 50.11097 | 9.23664 | 33750 ft | 477 kts | 281° |
| 2026-05-06 17:37 | 50.12849 | 9.13671 | 33763 ft | 477 kts | 281° |
| 2026-05-06 17:37 | 50.14828 | 9.02309 | 33785 ft | 478 kts | 281° |
| 2026-05-06 17:38 | 50.16271 | 8.93975 | 33783 ft | 476 kts | 281° |
| 2026-05-06 17:38 | 50.17994 | 8.83957 | 33776 ft | 479 kts | 281° |
| 2026-05-06 17:39 | 50.19714 | 8.73904 | 33805 ft | 479 kts | 281° |
| 2026-05-06 17:39 | 50.21711 | 8.62161 | 33789 ft | 478 kts | 281° |
| 2026-05-06 17:40 | 50.23135 | 8.53736 | 33815 ft | 478 kts | 282° |
| 2026-05-06 17:40 | 50.25114 | 8.41957 | 33803 ft | 479 kts | 282° |
| 2026-05-06 17:41 | 50.26457 | 8.33916 | 33818 ft | 477 kts | 281° |
| 2026-05-06 17:41 | 50.28350 | 8.22518 | 33808 ft | 477 kts | 281° |
| 2026-05-06 17:42 | 50.29731 | 8.14155 | 33802 ft | 477 kts | 281° |
| 2026-05-06 17:42 | 50.31601 | 8.02763 | 33817 ft | 477 kts | 282° |
| 2026-05-06 17:43 | 50.32970 | 7.94374 | 33818 ft | 478 kts | 282° |
| 2026-05-06 17:43 | 50.34891 | 7.82538 | 33810 ft | 476 kts | 282° |
| 2026-05-06 17:44 | 50.36244 | 7.74142 | 33835 ft | 478 kts | 282° |
| 2026-05-06 17:44 | 50.37861 | 7.64065 | 33825 ft | 476 kts | 282° |
| 2026-05-06 17:45 | 50.39466 | 7.53992 | 33841 ft | 477 kts | 282° |
| 2026-05-06 17:45 | 50.41324 | 7.42253 | 33815 ft | 477 kts | 282° |
| 2026-05-06 17:46 | 50.42643 | 7.33871 | 33827 ft | 478 kts | 281° |